Time;durP1;ratioP1;P1;durP2;ratioP2;P2;SDS_P1;SDS_P2;PMS_P1;PMS_P2;Temp;Humidity;BMP_temperature;BMP_pressure;BME280_temperature;BME280_humidity;BME280_pressure;Samples;Min_cycle;Max_cycle;Signal;HPM_P1;HPM_P2
2021/04/13 00:00:33;;;;;;;2.05;1.35;;;5.10;99.90;;;;;;5026251;28;20033;-70
2021/04/13 00:03:03;;;;;;;3.92;1.60;;;5.10;99.90;;;;;;5021936;28;20431;-70
2021/04/13 00:05:44;;;;;;;4.25;1.65;;;5.00;99.90;;;;;;5023091;28;20128;-70
2021/04/13 00:08:13;;;;;;;2.45;1.67;;;5.00;99.90;;;;;;5028162;28;20030;-70
2021/04/13 00:10:50;;;;;;;2.13;1.40;;;5.00;99.90;;;;;;5026382;28;20021;-70
2021/04/13 00:13:16;;;;;;;3.70;1.67;;;5.00;99.90;;;;;;5025374;28;20547;-69
2021/04/13 00:15:51;;;;;;;2.70;1.70;;;4.90;99.90;;;;;;5026367;28;20488;-70
2021/04/13 00:18:29;;;;;;;4.13;1.80;;;4.90;99.90;;;;;;5033520;28;20057;-70
2021/04/13 00:21:24;;;;;;;1.80;1.60;;;4.90;99.90;;;;;;5030819;28;20048;-70
2021/04/13 00:23:50;;;;;;;2.58;1.80;;;4.90;99.90;;;;;;5028998;28;20484;-69
2021/04/13 00:26:27;;;;;;;2.88;1.98;;;4.90;99.90;;;;;;5034377;28;20084;-70
2021/04/13 00:28:54;;;;;;;2.83;1.92;;;4.90;99.90;;;;;;5023965;28;20017;-70
2021/04/13 00:31:39;;;;;;;2.60;1.75;;;4.90;99.90;;;;;;5031990;28;20552;-70
2021/04/13 00:34:17;;;;;;;4.50;2.92;;;4.90;99.90;;;;;;5016052;28;20041;-70
2021/04/13 00:36:43;;;;;;;3.30;2.83;;;4.90;99.90;;;;;;5037148;28;20022;-69
2021/04/13 00:39:25;;;;;;;3.35;2.58;;;4.90;99.90;;;;;;5030982;28;20159;-70
2021/04/13 00:41:52;;;;;;;;;;;4.80;99.90;;;;;;5023561;28;20049;-69
2021/04/13 00:44:20;;;;;;;2.35;1.88;;;4.80;99.90;;;;;;5023031;28;19971;-70
2021/04/13 00:47:08;;;;;;;2.90;2.00;;;4.80;99.90;;;;;;5028332;28;20184;-70
2021/04/13 00:49:37;;;;;;;2.28;1.70;;;4.90;99.90;;;;;;5020066;28;20549;-69
2021/04/13 00:52:08;;;;;;;3.25;1.85;;;4.80;99.90;;;;;;5028062;28;20057;-70
2021/04/13 00:54:37;;;;;;;2.20;1.70;;;4.80;99.90;;;;;;5036641;28;20052;-70
2021/04/13 00:57:13;;;;;;;4.07;1.77;;;4.80;99.90;;;;;;5029915;28;20072;-69
2021/04/13 00:59:40;;;;;;;4.00;2.20;;;4.80;99.90;;;;;;5026637;28;20379;-70
2021/04/13 01:02:10;;;;;;;4.00;2.40;;;4.80;99.90;;;;;;5020664;28;20752;-70
2021/04/13 01:04:39;;;;;;;2.15;1.67;;;4.80;99.90;;;;;;5029082;28;20377;-70
2021/04/13 01:07:12;;;;;;;3.67;1.83;;;4.80;99.90;;;;;;5026564;28;20060;-70
2021/04/13 01:09:51;;;;;;;3.72;2.00;;;4.70;99.90;;;;;;5030965;28;20394;-70
2021/04/13 01:12:20;;;;;;;3.95;1.85;;;4.70;99.90;;;;;;5023413;28;20527;-70
2021/04/13 01:14:47;;;;;;;3.25;2.17;;;4.70;99.90;;;;;;5030319;28;20029;-70
2021/04/13 01:17:13;;;;;;;5.50;2.10;;;4.70;99.90;;;;;;5029428;28;20032;-70
2021/04/13 01:19:50;;;;;;;3.08;2.10;;;4.70;99.90;;;;;;5026568;28;20022;-70
2021/04/13 01:22:27;;;;;;;3.13;2.10;;;4.60;99.90;;;;;;5028319;28;20079;-70
2021/04/13 01:24:58;;;;;;;5.03;2.60;;;4.60;99.90;;;;;;5028320;28;20268;-69
2021/04/13 01:27:24;;;;;;;3.93;2.30;;;4.50;99.90;;;;;;5029106;28;20494;-70
2021/04/13 01:29:52;;;;;;;7.10;2.42;;;4.50;99.90;;;;;;5030564;28;20075;-70
2021/04/13 01:32:19;;;;;;;3.47;2.40;;;4.50;99.90;;;;;;5027013;28;20563;-70
2021/04/13 01:34:48;;;;;;;3.72;1.88;;;4.50;99.90;;;;;;5031013;28;20057;-70
2021/04/13 01:37:33;;;;;;;3.13;2.30;;;4.40;99.90;;;;;;5031956;28;20025;-70
2021/04/13 01:40:22;;;;;;;4.20;2.35;;;4.30;99.90;;;;;;5029730;28;20041;-70
2021/04/13 01:42:50;;;;;;;4.32;2.28;;;4.30;99.90;;;;;;5029274;28;20104;-69
2021/04/13 01:45:20;;;;;;;3.83;2.53;;;4.30;99.90;;;;;;5024169;28;20033;-70
2021/04/13 01:47:47;;;;;;;5.55;3.88;;;4.20;99.90;;;;;;5029170;28;20439;-70
2021/04/13 01:50:23;;;;;;;2.30;1.90;;;4.20;99.90;;;;;;5028599;28;20080;-70
2021/04/13 01:52:51;;;;;;;3.15;2.08;;;4.20;99.90;;;;;;5030717;28;20128;-70
2021/04/13 01:55:19;;;;;;;4.05;2.95;;;4.10;99.90;;;;;;5025724;28;20033;-70
2021/04/13 01:58:09;;;;;;;6.82;2.97;;;4.00;99.90;;;;;;5029256;28;20021;-69
2021/04/13 02:00:52;;;;;;;5.15;3.13;;;4.00;99.90;;;;;;5024779;28;20596;-70
2021/04/13 02:03:50;;;;;;;5.75;3.45;;;3.90;99.90;;;;;;5027137;28;20503;-70
2021/04/13 02:06:40;;;;;;;4.82;3.00;;;3.90;99.90;;;;;;5027309;28;20022;-70
2021/04/13 02:09:29;;;;;;;6.18;3.55;;;3.80;99.90;;;;;;5029849;28;20032;-70
2021/04/13 02:12:01;;;;;;;4.93;3.15;;;3.80;99.90;;;;;;5027559;28;20025;-70
2021/04/13 02:14:34;;;;;;;5.18;2.78;;;3.70;99.90;;;;;;5027509;28;20034;-70
2021/04/13 02:17:15;;;;;;;5.20;3.10;;;3.70;99.90;;;;;;5025951;28;20954;-70
2021/04/13 02:19:47;;;;;;;3.42;2.58;;;3.70;99.90;;;;;;5029633;28;20519;-70
2021/04/13 02:22:14;;;;;;;3.72;2.85;;;3.70;99.90;;;;;;5023531;28;20026;-69
2021/04/13 02:24:40;;;;;;;4.65;2.78;;;3.60;99.90;;;;;;5030312;28;20041;-70
2021/04/13 02:27:13;;;;;;;5.55;2.72;;;3.60;99.90;;;;;;5027477;28;20034;-69
2021/04/13 02:29:44;;;;;;;5.20;2.58;;;3.60;99.90;;;;;;5024899;28;20459;-69
2021/04/13 02:32:19;;;;;;;4.13;2.60;;;3.60;99.90;;;;;;5020056;28;20030;-70
2021/04/13 02:34:49;;;;;;;4.57;2.40;;;3.60;99.90;;;;;;5021685;28;20850;-70
2021/04/13 02:37:24;;;;;;;5.25;2.88;;;3.50;99.90;;;;;;5029033;28;20083;-69
2021/04/13 02:39:52;;;;;;;4.63;2.80;;;3.50;99.90;;;;;;5026905;28;20033;-70
2021/04/13 02:42:21;;;;;;;6.53;3.75;;;3.50;99.90;;;;;;5023760;28;20546;-70
2021/04/13 02:45:04;;;;;;;6.10;3.85;;;3.60;99.90;;;;;;5029094;28;20040;-70
2021/04/13 02:47:31;;;;;;;5.68;3.75;;;3.60;99.90;;;;;;5024396;28;20551;-70
2021/04/13 02:50:03;;;;;;;6.28;3.60;;;3.60;99.90;;;;;;5026097;28;20045;-69
2021/04/13 02:52:34;;;;;;;5.80;3.72;;;3.70;99.90;;;;;;5028284;28;20048;-70
2021/04/13 02:55:04;;;;;;;9.40;3.88;;;3.70;99.90;;;;;;5024875;28;20704;-69
2021/04/13 02:57:38;;;;;;;6.80;3.40;;;3.80;99.90;;;;;;5023489;28;20025;-69
2021/04/13 03:00:18;;;;;;;6.63;4.05;;;3.70;99.90;;;;;;5023695;28;20025;-69
2021/04/13 03:02:47;;;;;;;5.93;3.42;;;3.80;99.90;;;;;;5025821;28;20499;-69
2021/04/13 03:05:23;;;;;;;5.18;3.35;;;3.80;99.90;;;;;;5014323;28;20484;-70
2021/04/13 03:07:49;;;;;;;5.43;3.10;;;3.80;99.90;;;;;;5023826;28;20426;-69
2021/04/13 03:10:20;;;;;;;9.70;3.33;;;3.80;99.90;;;;;;5022902;28;20025;-70
2021/04/13 03:12:51;;;;;;;6.03;3.65;;;3.70;99.90;;;;;;5026608;28;20026;-69
2021/04/13 03:15:19;;;;;;;5.55;3.65;;;3.70;99.90;;;;;;5028042;28;20490;-69
2021/04/13 03:17:48;;;;;;;6.65;3.33;;;3.70;99.90;;;;;;5027457;28;20106;-69
2021/04/13 03:20:19;;;;;;;4.90;3.20;;;3.70;99.90;;;;;;5026187;28;20021;-69
2021/04/13 03:22:46;;;;;;;5.63;3.40;;;3.80;99.90;;;;;;5026631;28;20428;-69
2021/04/13 03:25:13;;;;;;;6.63;3.90;;;3.70;99.90;;;;;;5024567;28;20052;-69
2021/04/13 03:27:40;;;;;;;6.00;3.78;;;3.70;99.90;;;;;;5025039;28;20036;-69
2021/04/13 03:30:21;;;;;;;5.28;3.90;;;3.70;99.90;;;;;;5026363;28;20116;-69
2021/04/13 03:33:24;;;;;;;7.43;4.03;;;3.70;99.90;;;;;;5019974;28;20037;-69
2021/04/13 03:35:50;;;;;;;5.88;3.38;;;3.70;99.90;;;;;;5020998;28;20056;-69
2021/04/13 03:38:21;;;;;;;8.40;3.90;;;3.70;99.90;;;;;;5021464;28;20030;-69
2021/04/13 03:40:49;;;;;;;5.85;3.90;;;3.70;99.90;;;;;;5028526;28;20045;-69
2021/04/13 03:43:21;;;;;;;7.25;3.72;;;3.70;99.90;;;;;;5018054;28;20112;-69
2021/04/13 03:45:54;;;;;;;7.45;3.88;;;3.70;99.90;;;;;;5024027;28;20416;-69
2021/04/13 03:48:23;;;;;;;7.88;3.78;;;3.70;99.90;;;;;;5025590;28;20029;-69
2021/04/13 03:50:58;;;;;;;8.57;3.97;;;3.70;99.90;;;;;;5023210;28;20036;-70
2021/04/13 03:53:30;;;;;;;7.13;4.28;;;3.70;99.90;;;;;;5020002;28;20056;-69
2021/04/13 03:56:20;;;;;;;8.35;4.95;;;3.60;99.90;;;;;;5028709;28;20029;-70
2021/04/13 03:58:54;;;;;;;10.35;4.85;;;3.60;99.90;;;;;;5015548;28;20026;-70
2021/04/13 04:01:24;;;;;;;7.45;4.95;;;3.60;99.90;;;;;;5024116;28;20022;-70
2021/04/13 04:03:54;;;;;;;7.15;4.78;;;3.60;99.90;;;;;;5015058;28;20540;-70
2021/04/13 04:06:51;;;;;;;7.27;5.47;;;3.60;99.90;;;;;;5022972;28;20040;-70
2021/04/13 04:09:20;;;;;;;6.45;4.45;;;3.60;99.90;;;;;;5018491;28;20094;-70
2021/04/13 04:11:48;;;;;;;7.38;4.35;;;3.60;99.90;;;;;;5026799;28;20472;-70
2021/04/13 04:14:19;;;;;;;7.30;4.30;;;3.50;99.90;;;;;;5026070;28;20613;-70
2021/04/13 04:16:44;;;;;;;6.35;3.85;;;3.50;99.90;;;;;;5025855;28;20116;-70
2021/04/13 04:19:16;;;;;;;5.95;3.63;;;3.50;99.90;;;;;;5021949;28;20112;-70
2021/04/13 04:21:45;;;;;;;5.13;3.47;;;3.50;99.90;;;;;;5009060;28;20375;-70
2021/04/13 04:24:27;;;;;;;6.43;3.58;;;3.50;99.90;;;;;;5026868;28;20025;-70
2021/04/13 04:27:03;;;;;;;7.43;3.90;;;3.50;99.90;;;;;;5027394;28;20026;-70
2021/04/13 04:29:31;;;;;;;7.50;3.53;;;3.50;99.90;;;;;;5026870;28;20029;-70
2021/04/13 04:32:10;;;;;;;9.70;3.80;;;3.50;99.90;;;;;;5025685;28;20186;-70
2021/04/13 04:34:40;;;;;;;5.70;3.70;;;3.50;99.90;;;;;;5023453;28;20673;-70
2021/04/13 04:37:33;;;;;;;9.73;4.20;;;3.50;99.90;;;;;;5029228;28;20113;-70
2021/04/13 04:40:35;;;;;;;6.88;3.67;;;3.50;99.90;;;;;;4985345;28;20393;-70
2021/04/13 04:43:12;;;;;;;5.93;3.72;;;3.60;99.90;;;;;;5023660;28;20025;-70
2021/04/13 04:45:38;;;;;;;9.00;4.47;;;3.60;99.90;;;;;;5021891;28;20041;-70
2021/04/13 04:48:21;;;;;;;6.70;3.80;;;3.60;99.90;;;;;;5026011;28;20089;-70
2021/04/13 04:50:48;;;;;;;5.25;3.42;;;3.60;99.90;;;;;;5024702;28;20029;-70
2021/04/13 04:53:14;;;;;;;6.32;3.83;;;3.60;99.90;;;;;;5023815;28;20044;-70
2021/04/13 04:55:40;;;;;;;7.03;4.15;;;3.70;99.90;;;;;;5022360;28;20295;-71
2021/04/13 04:58:06;;;;;;;7.50;4.15;;;3.70;99.90;;;;;;5022207;28;20488;-69
2021/04/13 05:00:31;;;;;;;8.48;5.03;;;3.70;99.90;;;;;;5026247;28;20024;-74
2021/04/13 05:02:57;;;;;;;7.63;4.28;;;3.70;99.90;;;;;;5022473;28;20116;-73
2021/04/13 05:05:22;;;;;;;7.00;4.43;;;3.70;99.90;;;;;;5027578;28;20023;-72
2021/04/13 05:07:47;;;;;;;13.50;4.63;;;3.70;99.90;;;;;;5025013;28;20488;-73
2021/04/13 05:10:13;;;;;;;7.65;4.55;;;3.70;99.90;;;;;;5030805;28;20042;-70
2021/04/13 05:12:39;;;;;;;14.88;4.68;;;3.70;99.90;;;;;;5027922;28;20029;-70
2021/04/13 05:15:05;;;;;;;10.77;5.03;;;3.70;99.90;;;;;;5024665;28;21730;-71
2021/04/13 05:17:30;;;;;;;11.07;4.55;;;3.80;99.90;;;;;;5026295;28;20061;-73
2021/04/13 05:19:56;;;;;;;8.07;4.80;;;3.80;99.90;;;;;;5027901;28;20041;-76
2021/04/13 05:22:21;;;;;;;9.48;5.05;;;3.80;99.90;;;;;;5027802;28;20026;-79
2021/04/13 05:24:47;;;;;;;8.88;4.97;;;3.80;99.90;;;;;;5030762;28;20365;-79
2021/04/13 05:27:12;;;;;;;10.35;5.40;;;3.90;99.90;;;;;;5028417;28;20037;-77
2021/04/13 05:29:38;;;;;;;13.60;4.95;;;3.90;99.90;;;;;;5028426;28;20147;-78
2021/04/13 05:32:04;;;;;;;7.25;4.80;;;4.00;99.90;;;;;;5025507;28;20021;-78
2021/04/13 05:34:29;;;;;;;8.75;5.28;;;4.00;99.90;;;;;;5025600;28;20080;-79
2021/04/13 05:36:55;;;;;;;9.40;5.25;;;4.00;99.90;;;;;;5032741;28;20073;-76
2021/04/13 05:39:27;;;;;;;12.27;5.55;;;4.00;99.90;;;;;;5024073;28;20029;-76
2021/04/13 05:41:55;;;;;;;8.88;5.35;;;4.00;99.90;;;;;;5024327;28;20120;-76
2021/04/13 05:44:21;;;;;;;9.98;5.43;;;4.10;99.90;;;;;;5017571;28;20476;-76
2021/04/13 05:46:48;;;;;;;8.77;5.07;;;4.10;99.90;;;;;;5031684;28;20038;-78
2021/04/13 05:49:14;;;;;;;10.90;5.63;;;4.10;99.90;;;;;;5018513;28;20030;-76
2021/04/13 05:51:39;;;;;;;8.60;4.82;;;4.10;99.90;;;;;;5011244;28;20065;-76
2021/04/13 05:54:05;;;;;;;9.63;5.32;;;4.20;99.90;;;;;;5029184;28;20030;-76
2021/04/13 05:56:36;;;;;;;9.35;5.20;;;4.20;99.90;;;;;;5024259;28;20047;-77
2021/04/13 05:59:04;;;;;;;;;;;4.30;99.90;;;;;;5026598;28;20503;-77
2021/04/13 06:01:31;;;;;;;9.32;5.38;;;4.30;99.90;;;;;;5020643;28;19909;-77
2021/04/13 06:03:57;;;;;;;10.30;5.88;;;4.30;99.90;;;;;;5018475;28;20452;-77
2021/04/13 06:06:23;;;;;;;9.75;5.40;;;4.40;99.90;;;;;;5019582;28;20039;-76
2021/04/13 06:08:49;;;;;;;10.35;6.63;;;4.40;99.90;;;;;;5025839;28;20116;-76
2021/04/13 06:11:19;;;;;;;13.88;6.90;;;4.50;99.90;;;;;;5027117;28;20087;-75
2021/04/13 06:13:47;;;;;;;12.27;7.80;;;4.60;99.90;;;;;;5018031;28;20030;-76
2021/04/13 06:16:14;;;;;;;13.05;7.45;;;4.60;99.90;;;;;;5016265;28;20025;-75
2021/04/13 06:18:39;;;;;;;13.75;7.88;;;4.60;99.90;;;;;;5029150;28;20052;-77
2021/04/13 06:21:20;;;;;;;13.68;8.18;;;4.70;99.90;;;;;;5025916;28;20017;-74
2021/04/13 06:23:46;;;;;;;15.47;7.53;;;4.70;99.90;;;;;;5026045;28;20029;-71
2021/04/13 06:26:12;;;;;;;13.00;6.78;;;4.70;99.90;;;;;;5018799;28;20354;-72
2021/04/13 06:28:37;;;;;;;8.18;5.15;;;4.80;99.90;;;;;;5020066;28;20075;-72
2021/04/13 06:31:04;;;;;;;9.80;5.55;;;4.80;99.90;;;;;;5014543;28;20151;-72
2021/04/13 06:33:31;;;;;;;9.13;5.05;;;4.80;99.90;;;;;;5021673;28;20488;-71
2021/04/13 06:35:58;;;;;;;9.45;4.90;;;4.80;99.90;;;;;;5018143;28;20040;-72
2021/04/13 06:38:24;;;;;;;6.38;4.22;;;4.90;99.90;;;;;;5015184;28;20057;-72
2021/04/13 06:41:16;;;;;;;9.35;4.82;;;4.90;99.90;;;;;;5021511;28;20117;-72
2021/04/13 06:44:06;;;;;;;7.55;4.55;;;4.90;99.90;;;;;;5024902;28;20037;-71
2021/04/13 06:46:39;;;;;;;8.20;5.05;;;4.90;99.90;;;;;;5015278;28;20484;-71
2021/04/13 06:49:41;;;;;;;7.05;4.25;;;4.90;99.90;;;;;;5013540;28;20041;-71
2021/04/13 06:52:31;;;;;;;9.98;4.18;;;5.00;99.90;;;;;;5013585;28;20073;-71
2021/04/13 06:55:08;;;;;;;11.00;4.22;;;5.00;99.90;;;;;;5019828;28;20514;-72
2021/04/13 06:57:56;;;;;;;9.55;4.78;;;5.00;99.90;;;;;;5023703;28;20033;-76
2021/04/13 07:00:36;;;;;;;8.07;4.65;;;5.00;99.90;;;;;;5013878;28;20029;-73
2021/04/13 07:03:28;;;;;;;7.60;4.25;;;5.10;99.90;;;;;;5021767;28;20026;-74
2021/04/13 07:06:09;;;;;;;;;;;5.10;99.90;;;;;;5021876;28;20029;-76
2021/04/13 07:08:42;;;;;;;9.27;4.53;;;5.10;99.90;;;;;;5022409;28;19948;-77
2021/04/13 07:11:19;;;;;;;13.02;4.60;;;5.20;99.90;;;;;;5020461;28;20056;-77
2021/04/13 07:13:50;;;;;;;8.95;4.05;;;5.30;99.90;;;;;;5025035;28;20022;-76
2021/04/13 07:16:24;;;;;;;5.93;4.03;;;5.40;99.90;;;;;;5027836;28;20116;-75
2021/04/13 07:19:02;;;;;;;7.15;4.05;;;5.40;99.90;;;;;;5014485;28;20385;-74
2021/04/13 07:21:40;;;;;;;8.00;3.88;;;5.50;99.90;;;;;;5027903;28;20639;-74
2021/04/13 07:24:27;;;;;;;11.90;4.60;;;5.60;99.90;;;;;;5024682;28;20578;-74
2021/04/13 07:27:14;;;;;;;7.10;4.05;;;5.60;99.90;;;;;;5026215;28;20032;-74
2021/04/13 07:30:04;;;;;;;11.38;3.70;;;5.70;99.90;;;;;;5019118;28;20040;-73
2021/04/13 07:32:29;;;;;;;7.78;3.90;;;5.80;99.90;;;;;;5021589;28;20056;-74
2021/04/13 07:34:58;;;;;;;6.45;3.55;;;5.90;99.90;;;;;;5011784;28;20064;-71
2021/04/13 07:37:32;;;;;;;8.10;3.90;;;6.00;99.90;;;;;;5026874;28;20236;-72
2021/04/13 07:40:06;;;;;;;5.63;3.55;;;6.10;99.90;;;;;;5017055;28;20075;-72
2021/04/13 07:42:35;;;;;;;6.32;3.63;;;6.20;99.90;;;;;;5025748;28;20021;-72
2021/04/13 07:45:19;;;;;;;8.30;3.83;;;6.30;99.90;;;;;;5015392;28;20177;-72
2021/04/13 07:47:44;;;;;;;5.95;3.42;;;6.50;99.90;;;;;;5023351;28;20619;-72
2021/04/13 07:50:10;;;;;;;5.60;3.53;;;6.60;99.90;;;;;;5015544;28;20062;-71
2021/04/13 07:52:56;;;;;;;7.07;3.10;;;6.80;99.90;;;;;;5019793;28;20053;-72
2021/04/13 07:55:23;;;;;;;5.25;3.03;;;6.90;99.90;;;;;;5008954;28;20030;-73
2021/04/13 07:58:12;;;;;;;6.22;3.05;;;7.00;99.90;;;;;;5022044;28;20053;-73
2021/04/13 08:00:40;;;;;;;6.47;3.17;;;7.10;99.90;;;;;;5015591;28;20170;-73
2021/04/13 08:03:22;;;;;;;7.28;3.22;;;7.20;99.30;;;;;;5022342;28;20053;-73
2021/04/13 08:05:50;;;;;;;6.60;3.45;;;7.10;99.20;;;;;;5026720;28;20122;-73
2021/04/13 08:08:41;;;;;;;8.43;3.33;;;7.10;98.70;;;;;;5024279;28;20029;-73
2021/04/13 08:11:17;;;;;;;3.70;2.70;;;7.00;98.90;;;;;;5021699;28;20026;-72
2021/04/13 08:13:45;;;;;;;6.68;3.10;;;6.90;99.10;;;;;;5021487;28;20091;-73
2021/04/13 08:16:28;;;;;;;6.85;3.08;;;7.00;99.50;;;;;;5018623;28;20108;-73
2021/04/13 08:19:26;;;;;;;5.43;3.28;;;7.00;99.30;;;;;;5023751;28;20025;-72
2021/04/13 08:22:18;;;;;;;8.30;3.08;;;7.00;97.70;;;;;;5008084;28;20484;-73
2021/04/13 08:24:57;;;;;;;5.10;2.70;;;6.90;97.80;;;;;;5019157;28;20503;-73
2021/04/13 08:27:49;;;;;;;6.57;2.35;;;6.90;98.00;;;;;;5022013;28;20021;-73
2021/04/13 08:30:33;;;;;;;4.50;2.47;;;6.90;98.40;;;;;;5027688;28;20038;-72
2021/04/13 08:33:24;;;;;;;5.28;2.88;;;6.90;98.40;;;;;;5013341;28;20040;-73
2021/04/13 08:36:10;;;;;;;4.00;2.40;;;7.00;98.60;;;;;;5013714;28;20170;-72
2021/04/13 08:39:16;;;;;;;4.78;2.80;;;7.20;99.20;;;;;;5016155;28;20030;-71
2021/04/13 08:41:55;;;;;;;6.40;2.85;;;7.50;98.70;;;;;;5021673;28;20060;-73
2021/04/13 08:44:35;;;;;;;11.52;2.53;;;7.80;97.30;;;;;;5022330;28;20033;-72
2021/04/13 08:47:03;;;;;;;11.10;3.08;;;8.00;95.00;;;;;;5026098;28;20030;-72
2021/04/13 08:49:50;;;;;;;5.45;2.40;;;7.90;94.50;;;;;;5025483;28;20028;-72
2021/04/13 08:52:33;;;;;;;4.55;2.00;;;7.90;94.50;;;;;;5030012;28;20060;-71
2021/04/13 08:55:18;;;;;;;4.63;2.00;;;7.90;93.90;;;;;;5021503;28;20500;-71
2021/04/13 08:58:20;;;;;;;5.32;2.05;;;7.90;94.10;;;;;;5026741;28;20060;-71
2021/04/13 09:00:52;;;;;;;;;;;7.90;93.00;;;;;;5027213;28;20033;-71
2021/04/13 09:03:21;;;;;;;8.23;2.20;;;8.00;93.40;;;;;;5027444;28;19917;-71
2021/04/13 09:06:04;;;;;;;4.05;2.25;;;8.20;92.20;;;;;;5028597;28;20018;-74
2021/04/13 09:09:03;;;;;;;4.90;2.38;;;8.20;91.70;;;;;;5025694;28;20056;-72
2021/04/13 09:11:36;;;;;;;7.45;3.13;;;8.30;91.20;;;;;;4937796;28;20054;-72
2021/04/13 09:14:08;;;;;;;4.25;2.00;;;8.30;91.80;;;;;;5027859;28;20040;-73
2021/04/13 09:16:38;;;;;;;3.97;2.30;;;8.30;91.40;;;;;;5025037;28;20037;-72
2021/04/13 09:19:17;;;;;;;4.38;2.35;;;8.40;92.40;;;;;;5026675;28;20108;-72
2021/04/13 09:21:51;;;;;;;4.80;2.50;;;8.50;93.30;;;;;;5018974;28;20068;-72
2021/04/13 09:24:39;;;;;;;7.05;2.58;;;8.80;92.40;;;;;;5025222;28;20057;-74
2021/04/13 09:27:41;;;;;;;5.28;2.10;;;8.90;91.30;;;;;;5026416;28;20548;-72
2021/04/13 09:30:18;;;;;;;6.25;2.30;;;8.90;87.10;;;;;;5011777;28;20084;-69
2021/04/13 09:32:49;;;;;;;8.07;2.17;;;8.80;88.20;;;;;;5025182;28;20057;-69
2021/04/13 09:35:50;;;;;;;8.35;2.42;;;8.60;86.00;;;;;;5026652;28;20032;-70
2021/04/13 09:38:49;;;;;;;2.92;1.70;;;8.60;86.20;;;;;;5025098;28;20032;-69
2021/04/13 09:41:50;;;;;;;4.65;1.95;;;8.70;85.50;;;;;;5022920;28;20029;-69
2021/04/13 09:44:41;;;;;;;6.10;2.05;;;8.80;85.00;;;;;;5025218;28;20179;-70
2021/04/13 09:47:18;;;;;;;7.13;1.73;;;9.00;84.20;;;;;;5019574;28;20741;-73
2021/04/13 09:50:02;;;;;;;4.85;1.83;;;9.00;84.50;;;;;;5024890;28;20034;-73
2021/04/13 09:52:51;;;;;;;3.13;1.80;;;9.00;83.70;;;;;;5022340;28;20049;-73
2021/04/13 09:55:32;;;;;;;3.47;1.85;;;8.80;80.00;;;;;;5022219;28;20025;-73
2021/04/13 09:58:25;;;;;;;2.95;1.50;;;8.70;79.20;;;;;;5020376;28;20033;-74
2021/04/13 10:01:08;;;;;;;5.50;1.90;;;8.70;79.50;;;;;;5021261;28;20116;-73
2021/04/13 10:03:55;;;;;;;6.50;2.20;;;8.90;81.10;;;;;;5020889;28;20078;-74
2021/04/13 10:06:36;;;;;;;4.28;2.10;;;9.10;79.50;;;;;;5024905;28;20550;-73
2021/04/13 10:09:06;;;;;;;5.90;1.92;;;9.30;77.60;;;;;;5025865;28;20030;-73
2021/04/13 10:12:07;;;;;;;3.80;1.87;;;9.50;77.20;;;;;;5026670;28;20036;-73
2021/04/13 10:14:53;;;;;;;7.03;1.90;;;9.40;76.60;;;;;;5008443;28;20547;-73
2021/04/13 10:17:47;;;;;;;3.67;2.28;;;9.20;76.60;;;;;;5026673;28;20033;-73
2021/04/13 10:20:36;;;;;;;2.60;1.63;;;9.00;78.10;;;;;;5026331;28;20040;-73
2021/04/13 10:23:34;;;;;;;4.35;1.83;;;9.00;78.50;;;;;;5025347;28;20056;-73
2021/04/13 10:26:35;;;;;;;5.95;2.00;;;9.00;78.60;;;;;;5025581;28;20113;-73
2021/04/13 10:29:22;;;;;;;6.20;1.60;;;9.00;78.00;;;;;;5017064;28;20086;-73
2021/04/13 10:32:14;;;;;;;7.03;1.58;;;9.10;77.30;;;;;;5022203;28;20348;-73
2021/04/13 10:35:11;;;;;;;4.65;1.67;;;9.50;76.80;;;;;;5024094;28;20040;-73
2021/04/13 10:38:11;;;;;;;4.18;1.70;;;9.90;75.00;;;;;;5024107;28;20036;-73
2021/04/13 10:41:26;;;;;;;3.88;1.55;;;10.10;75.30;;;;;;5027743;28;20079;-73
2021/04/13 10:44:12;;;;;;;3.47;1.50;;;10.30;73.80;;;;;;5022859;28;20094;-73
2021/04/13 10:46:49;;;;;;;3.70;1.70;;;10.40;69.50;;;;;;5020980;28;20171;-74
2021/04/13 10:49:41;;;;;;;4.93;1.75;;;10.50;68.90;;;;;;5016833;28;20033;-72
2021/04/13 10:52:44;;;;;;;3.97;1.70;;;10.60;69.00;;;;;;5024049;28;20041;-73
2021/04/13 10:55:25;;;;;;;3.67;1.65;;;10.80;70.00;;;;;;5024630;28;20052;-72
2021/04/13 10:58:28;;;;;;;4.93;1.98;;;10.70;68.60;;;;;;5020900;28;20040;-74
2021/04/13 11:01:32;;;;;;;6.18;1.48;;;10.60;70.60;;;;;;5019248;28;20068;-72
2021/04/13 11:04:21;;;;;;;5.15;1.73;;;10.70;68.30;;;;;;5023493;28;20029;-73
2021/04/13 11:07:21;;;;;;;2.65;1.15;;;10.70;69.00;;;;;;5023180;28;20029;-73
2021/04/13 11:10:27;;;;;;;4.35;1.40;;;10.80;65.50;;;;;;5023350;28;20453;-73
2021/04/13 11:13:11;;;;;;;2.75;1.23;;;11.10;65.50;;;;;;5022232;28;20051;-73
2021/04/13 11:15:39;;;;;;;2.90;1.10;;;11.30;61.30;;;;;;5026268;28;20037;-73
2021/04/13 11:18:28;;;;;;;4.72;1.30;;;11.10;63.10;;;;;;5020538;28;20017;-73
2021/04/13 11:21:14;;;;;;;3.75;1.40;;;10.70;62.30;;;;;;5023467;28;20121;-73
2021/04/13 11:24:20;;;;;;;2.38;1.10;;;10.50;64.80;;;;;;5023630;28;20516;-72
2021/04/13 11:27:16;;;;;;;6.63;1.67;;;11.10;67.20;;;;;;5023354;28;20037;-73
2021/04/13 11:30:08;;;;;;;3.47;1.45;;;11.50;63.80;;;;;;5024117;28;20082;-71
2021/04/13 11:32:59;;;;;;;2.67;1.30;;;11.80;62.90;;;;;;5019910;28;20026;-74
2021/04/13 11:35:43;;;;;;;4.93;1.10;;;11.70;61.40;;;;;;5025016;28;20444;-73
2021/04/13 11:38:31;;;;;;;3.55;1.30;;;11.60;60.50;;;;;;5023681;28;20018;-71
2021/04/13 11:41:17;;;;;;;3.88;1.33;;;11.40;60.40;;;;;;5015684;28;20028;-70
2021/04/13 11:44:11;;;;;;;6.57;1.38;;;11.50;59.80;;;;;;5024091;28;20041;-72
2021/04/13 11:46:46;;;;;;;6.38;1.77;;;11.90;60.50;;;;;;4978778;28;20041;-72
2021/04/13 11:49:42;;;;;;;2.90;1.10;;;12.60;59.40;;;;;;5024476;28;20021;-71
2021/04/13 11:52:39;;;;;;;2.63;1.30;;;13.10;56.40;;;;;;5016795;28;20054;-72
2021/04/13 11:55:27;;;;;;;2.85;1.20;;;13.00;54.00;;;;;;5022532;28;20041;-72
2021/04/13 11:58:05;;;;;;;3.25;1.20;;;12.80;55.90;;;;;;5015244;28;20116;-72
2021/04/13 12:00:31;;;;;;;2.50;1.00;;;13.10;58.20;;;;;;5018488;28;20043;-72
2021/04/13 12:03:02;;;;;;;3.08;1.27;;;13.40;56.80;;;;;;5018085;28;20488;-72
2021/04/13 12:05:38;;;;;;;;;;;13.60;55.30;;;;;;5021900;28;20510;-72
2021/04/13 12:08:30;;;;;;;5.95;1.10;;;13.50;56.00;;;;;;5010712;28;19916;-73
2021/04/13 12:11:16;;;;;;;4.40;1.02;;;13.20;56.20;;;;;;5011887;28;20033;-71
2021/04/13 12:13:49;;;;;;;3.40;1.17;;;12.80;55.70;;;;;;5021667;28;20124;-71
2021/04/13 12:16:41;;;;;;;3.05;1.20;;;12.50;58.70;;;;;;5019415;28;20025;-71
2021/04/13 12:19:12;;;;;;;4.72;1.20;;;12.20;55.60;;;;;;5016940;28;20026;-71
2021/04/13 12:21:56;;;;;;;4.45;1.20;;;11.90;57.50;;;;;;5007613;28;20136;-71
2021/04/13 12:24:45;;;;;;;3.92;1.10;;;11.80;59.40;;;;;;5017783;28;20033;-72
2021/04/13 12:27:25;;;;;;;3.63;1.20;;;11.60;59.50;;;;;;5022993;28;20058;-71
2021/04/13 12:29:51;;;;;;;4.72;1.20;;;11.60;59.30;;;;;;5018651;28;20115;-73
2021/04/13 12:32:16;;;;;;;2.63;1.02;;;11.60;60.20;;;;;;5019363;28;20053;-71
2021/04/13 12:34:48;;;;;;;5.57;1.40;;;11.80;58.70;;;;;;5021535;28;20033;-73
2021/04/13 12:37:33;;;;;;;;;;;12.00;58.30;;;;;;5028163;28;20032;-72
2021/04/13 12:40:00;;;;;;;5.53;1.38;;;12.10;58.50;;;;;;5012589;28;19924;-71
2021/04/13 12:42:28;;;;;;;3.55;1.40;;;12.10;58.30;;;;;;5024109;28;20025;-71
2021/04/13 12:45:18;;;;;;;1.80;1.25;;;12.70;58.20;;;;;;5024926;28;20038;-72
2021/04/13 12:47:53;;;;;;;1.58;0.90;;;12.90;55.70;;;;;;5026477;28;20061;-72
2021/04/13 12:50:24;;;;;;;4.90;1.83;;;12.80;55.40;;;;;;5018903;28;20026;-71
2021/04/13 12:52:50;;;;;;;3.05;1.15;;;12.80;56.00;;;;;;5021772;28;20519;-72
2021/04/13 12:55:17;;;;;;;4.18;1.08;;;13.30;54.50;;;;;;5022377;28;20048;-71
2021/04/13 12:57:58;;;;;;;2.90;1.05;;;14.40;52.60;;;;;;5020343;28;20128;-71
2021/04/13 13:00:32;;;;;;;1.30;1.08;;;15.60;48.80;;;;;;5022394;28;20021;-75
2021/04/13 13:03:22;;;;;;;6.53;1.10;;;16.80;46.40;;;;;;5019232;28;20046;-71
2021/04/13 13:05:50;;;;;;;5.38;1.10;;;17.40;44.20;;;;;;5019890;28;20064;-71
2021/04/13 13:08:28;;;;;;;7.68;1.02;;;18.00;44.40;;;;;;5026550;28;20029;-71
2021/04/13 13:10:57;;;;;;;2.95;0.93;;;18.40;42.80;;;;;;5018135;28;20041;-72
2021/04/13 13:13:29;;;;;;;3.17;0.90;;;18.70;42.30;;;;;;5003496;28;20027;-72
2021/04/13 13:15:56;;;;;;;4.72;1.20;;;19.20;40.10;;;;;;5022148;28;20026;-71
2021/04/13 13:18:30;;;;;;;2.95;1.10;;;19.40;39.50;;;;;;5031252;28;20021;-71
2021/04/13 13:21:03;;;;;;;5.60;1.25;;;19.70;38.60;;;;;;5031305;28;20393;-71
2021/04/13 13:23:35;;;;;;;4.07;1.00;;;20.00;38.00;;;;;;5026245;28;20022;-70
2021/04/13 13:26:18;;;;;;;2.13;0.95;;;20.40;37.80;;;;;;5015136;28;20018;-71
2021/04/13 13:28:44;;;;;;;2.67;1.17;;;20.20;36.30;;;;;;5027591;28;20024;-71
2021/04/13 13:31:12;;;;;;;4.05;1.25;;;20.10;36.40;;;;;;5026852;28;20299;-71
2021/04/13 13:33:41;;;;;;;5.13;1.17;;;20.00;36.70;;;;;;5019622;28;20044;-70
2021/04/13 13:36:10;;;;;;;4.22;0.90;;;18.70;38.10;;;;;;5023895;28;20387;-71
2021/04/13 13:38:38;;;;;;;4.70;1.05;;;17.70;41.00;;;;;;5009865;28;20037;-70
2021/04/13 13:41:04;;;;;;;2.25;1.00;;;17.30;42.20;;;;;;5027574;28;20605;-71
2021/04/13 13:43:35;;;;;;;2.28;1.05;;;16.80;44.30;;;;;;5021351;28;20375;-71
2021/04/13 13:46:24;;;;;;;7.07;1.10;;;16.60;44.10;;;;;;5019628;28;20124;-72